Latest Coastal Weather Observations for Wynyard

IDT60701

Issued at 3:52 am EST Tuesday 26 July 2016 (issued every 10 minutes, with the page automatically refreshed every 10 minutes)

About coastal observations | Map of coastal stations | Coastal observations for TAS | Marine services | Other Formats
Station Details ID: 091107 Name: WYNYARD AIRPORT Lat: -41.00 Lon: 145.73 Height: 12.0 m
Data from the previous 72 hours. | See also: Recent months at Wynyard
Date/Time
EST
Temp
°C
Wind Pressure Rain since
9am
mm
Weather Cloud Vis
km
Sea
Height
m
Swell
Dir  Spd
kts
Gust
kts
hPa Trend Height
m
Period
s
Dir
26/03:30am 5.4 W 13 18 998.2 - 12.2 - - 10 - - - -
26/03:00am 5.4 WNW 13 17 997.9 - 12.2 - Mostly clear 10 - - - -
26/02:30am 5.4 WNW 12 17 997.7 - 12.2 - Partly cloudy 10 - - - -
26/02:00am 6.1 WNW 14 18 997.4 - 12.2 - Partly cloudy 10 - - - -
26/01:30am 5.7 W 11 16 997.1 - 12.2 - Partly cloudy 10 - - - -
26/01:00am 5.5 WNW 11 16 996.8 - 12.0 - Partly cloudy 10 - - - -
26/12:30am 5.3 W 13 18 996.1 - 12.0 - Partly cloudy 10 - - - -
26/12:23am 5.2 WNW 15 21 996.4 - 12.0 - Partly cloudy 10 - - - -
26/12:10am 5.5 W 19 34 996.5 - 12.0 - Partly cloudy 5 - - - -
26/12:06am 5.7 W 16 33 997.0 - 12.0 - Partly cloudy 10 - - - -
26/12:00am 5.9 W 14 19 996.5 - 11.8 - Cloudy 10 - - - -
 
Date/Time
EST
Temp
°C
Wind Pressure Rain since
9am
mm
Weather Cloud Vis
km
Sea
Height
m
Swell
Dir  Spd
kts
Gust
kts
hPa Trend Height
m
Period
s
Dir
25/11:30pm 5.8 W 15 22 996.1 - 11.8 - Partly cloudy 10 - - - -
25/11:00pm 5.6 WNW 14 20 996.0 - 11.8 - Partly cloudy 10 - - - -
25/10:30pm 5.4 WNW 11 15 995.4 - 11.8 - Partly cloudy 10 - - - -
25/10:12pm 5.5 WNW 16 26 995.5 - 11.8 - Partly cloudy 10 - - - -
25/10:11pm 5.6 WNW 17 26 995.5 - 11.8 - Partly cloudy 10 - - - -
25/10:00pm 5.9 W 23 32 996.0 - 11.8 - Partly cloudy 5 - - - -
25/09:56pm 5.8 W 22 32 995.8 - 11.8 - Partly cloudy 5 - - - -
25/09:51pm 6.1 W 18 31 995.6 - 11.4 - Partly cloudy 10 - - - -
25/09:40pm 5.8 W 18 26 994.7 - 11.4 - Partly cloudy 10 - - - -
25/09:30pm 6.2 W 23 33 994.8 - 11.4 - Partly cloudy 5 - - - -
25/09:24pm 6.5 W 23 33 994.9 - 11.4 - Partly cloudy 5 - - - -
25/09:21pm 6.6 W 20 32 995.0 - 11.2 - Partly cloudy 8 - - - -
25/09:00pm 6.9 WNW 18 24 993.9 - 11.2 Recent precip. Mostly cloudy 10 - - - -
25/08:40pm 7.0 W 21 35 993.9 - 11.2 - Partly cloudy 10 - - - -
25/08:31pm 6.9 WNW 24 34 994.4 - 11.2 - Partly cloudy 6 - - - -
25/08:30pm 7.0 WNW 25 34 994.3 - 11.2 - Partly cloudy 5 - - - -
25/08:21pm 7.2 WNW 19 34 994.2 - 11.0 - Partly cloudy 5 - - - -
25/08:20pm 7.1 WNW 18 29 994.2 - 11.0 - Partly cloudy 6 - - - -
25/08:00pm 7.3 W 17 23 993.5 - 10.8 - Partly cloudy 10 - - - -
25/07:32pm 7.7 W 22 32 992.9 - 10.8 - Partly cloudy 9 - - - -
25/07:30pm 7.8 W 23 32 992.8 - 10.8 - Partly cloudy 8 - - - -
25/07:24pm 7.9 WNW 21 32 992.6 - 10.8 - Partly cloudy 10 - - - -
25/07:15pm 8.0 WNW 20 26 992.3 - 10.8 - Partly cloudy 10 - - - -
25/07:00pm 7.9 WNW 21 33 992.1 - 10.6 - Partly cloudy 4 - - - -
25/06:56pm 8.1 WNW 21 33 992.5 - 10.4 - Partly cloudy 5 - - - -
25/06:41pm 8.1 WNW 21 28 992.2 - 9.8 - Partly cloudy 9 - - - -
25/06:30pm 8.6 NW 25 38 992.2 - 9.6 - Partly cloudy 5 - - - -
25/06:26pm 9.0 NW 22 38 992.1 - 9.6 - Partly cloudy 5 - - - -
25/06:23pm 9.2 NW 20 32 992.2 - 9.4 - Partly cloudy 6 - - - -
25/06:16pm 9.0 NW 21 29 992.5 - 9.0 - Partly cloudy 8 - - - -
25/06:11pm 9.1 NW 19 29 992.3 - 9.0 - Partly cloudy 8 - - - -
25/06:00pm 8.7 NW 23 39 992.4 - 8.8 Rain Cloudy 4 - - - -
25/05:46pm 8.9 NNW 28 40 993.4 - 7.0 - Partly cloudy 2 - - - -
25/05:42pm 9.2 NNW 26 37 993.2 - 6.6 - Partly cloudy 2 - - - -
25/05:36pm 9.6 NNW 19 37 993.2 - 5.0 - Partly cloudy 3 - - - -
25/05:32pm 9.8 NNW 15 27 993.2 - 4.6 - Partly cloudy 4 - - - -
25/05:30pm 9.7 NNW 15 19 993.3 - 4.2 - Partly cloudy 5 - - - -
25/05:28pm 9.7 NNW 15 21 993.4 - 3.8 - Partly cloudy 5 - - - -
25/05:00pm 10.2 NNW 20 31 993.9 - 2.2 - Partly cloudy 9 - - - -
25/04:32pm 10.8 NNW 15 32 994.3 - 2.2 - Partly cloudy 10 - - - -
25/04:30pm 10.6 NNW 13 31 994.6 - 2.2 - Partly cloudy 10 - - - -
25/04:00pm 10.3 NNW 13 18 995.5 - 2.0 - Partly cloudy 10 - - - -
25/03:45pm 10.0 NNW 13 19 996.0 - 2.0 - Partly cloudy 10 - - - -
25/03:30pm 9.5 NW 12 16 996.5 - 2.0 - Partly cloudy 4 - - - -
25/03:16pm 9.8 NW 12 18 996.8 - 1.6 - Partly cloudy 5 - - - -
25/03:00pm 11.0 NW 8 10 996.9 - 1.6 - Mostly cloudy 10 - - - -
25/02:30pm 11.3 WNW 11 17 997.5 - 1.6 - - 10 - - - -
25/02:00pm 11.1 WNW 14 21 998.1 - 1.6 - - 10 - - - -
25/01:30pm 11.4 W 14 19 998.4 - 1.6 - Partly cloudy 10 - - - -
25/01:07pm 10.4 W 12 16 998.9 - 1.6 - Partly cloudy 10 - - - -
25/01:00pm 10.7 W 13 17 999.0 - 1.6 - Partly cloudy 10 - - - -
25/12:49pm 9.6 W 16 27 999.4 - 1.6 - Partly cloudy 4 - - - -
25/12:48pm 9.8 W 16 24 999.5 - 1.2 - Partly cloudy 5 - - - -
25/12:30pm 11.0 W 14 20 999.7 - 0.0 - Partly cloudy 10 - - - -
25/12:00pm 12.5 WNW 13 18 1000.0 - 0.0 - Cloudy 10 - - - -
25/11:30am 12.0 W 13 17 1000.4 - 0.0 - Partly cloudy 10 - - - -
25/11:00am 11.8 WNW 11 14 1000.8 - 0.0 - Partly cloudy 10 - - - -
25/10:30am 10.2 WNW 1 4 1001.0 - 0.0 - Partly cloudy 10 - - - -
25/10:00am 9.7 WNW 5 7 1001.0 - 0.0 - Partly cloudy 10 - - - -
25/09:30am 8.6 WSW 6 7 1001.0 - 0.0 - Partly cloudy 10 - - - -
25/09:00am 7.6 WNW 6 8 1000.7 - 13.4 - Partly cloudy 10 - - - -
25/08:30am 7.1 WNW 6 7 1000.6 - 13.4 - Cloudy 10 - - - -
25/08:00am 6.7 W 5 6 1000.4 - 13.4 - Partly cloudy 10 - - - -
25/07:30am 6.7 WNW 5 7 1000.3 - 13.4 - Cloudy 10 - - - -
25/07:00am 6.2 S 4 5 999.8 - 13.4 - Partly cloudy 7 - - - -
25/06:30am 6.3 SSE 1 4 999.4 - 13.4 - Partly cloudy 10 - - - -
25/06:29am 6.3 SSE 1 4 999.4 - 13.4 - Partly cloudy 10 - - - -
25/06:14am 6.7 S 4 5 999.3 - 13.4 - Partly cloudy 10 - - - -
25/06:05am 6.7 S 4 5 999.3 - 13.4 - Partly cloudy 10 - - - -
25/06:00am 6.7 S 4 6 999.4 - 13.4 Recent precip. Cloudy 10 - - - -
25/05:48am 6.8 S 2 5 999.5 - 13.4 - Partly cloudy 10 - - - -
25/05:42am 6.9 N 2 6 999.6 - 13.4 - Partly cloudy 8 - - - -
25/05:30am 6.7 CALM 0 4 999.7 - 13.4 - Partly cloudy 3 - - - -
25/05:22am 6.7 CALM 0 0 999.6 - 13.2 - Partly cloudy 5 - - - -
25/05:05am 6.6 CALM 0 0 999.6 - 13.0 - Partly cloudy 5 - - - -
25/05:00am 6.6 N 1 4 999.5 - 12.6 - Partly cloudy 8 - - - -
25/04:49am 6.3 SSE 3 5 999.5 - 12.4 - Partly cloudy 10 - - - -
25/04:30am 6.6 SSE 6 7 999.5 - 12.4 - Partly cloudy 10 - - - -
25/04:15am 6.7 SSE 6 7 999.5 - 12.4 - Partly cloudy 8 - - - -
25/04:14am 6.7 SSE 6 7 999.5 - 12.4 - Partly cloudy 8 - - - -
25/04:00am 6.9 S 3 5 999.6 - 12.4 - Partly cloudy 5 - - - -
25/03:44am 6.8 S 2 5 999.7 - 12.0 - Partly cloudy 3 - - - -
25/03:30am 6.8 S 4 6 999.7 - 11.0 - Partly cloudy 3 - - - -
25/03:03am 6.7 S 4 5 999.8 - 9.8 - Partly cloudy 5 - - - -
25/03:00am 6.6 S 4 5 1000.0 - 9.8 Rain Cloudy 8 - - - -
25/02:30am 6.6 S 5 6 1000.3 - 9.4 - Partly cloudy 10 - - - -
25/02:00am 7.2 S 4 7 1000.3 - 9.2 - Partly cloudy 6 - - - -
25/01:30am 6.9 SSW 7 10 1000.5 - 8.6 - Partly cloudy 10 - - - -
25/01:00am 7.0 S 5 6 1000.6 - 8.6 - Partly cloudy 10 - - - -
25/12:30am 7.1 SE 5 7 1000.8 - 8.6 - Partly cloudy 10 - - - -
25/12:01am 7.0 SE 7 10 1001.3 - 8.6 - Partly cloudy 10 - - - -
25/12:00am 7.0 SE 7 10 1001.3 - 8.6 Recent precip. Cloudy 10 - - - -
 
Date/Time
EST
Temp
°C
Wind Pressure Rain since
9am
mm
Weather Cloud Vis
km
Sea
Height
m
Swell
Dir  Spd
kts
Gust
kts
hPa Trend Height
m
Period
s
Dir
24/11:58pm 6.9 SE 7 10 1001.3 - 8.6 - Partly cloudy 10 - - - -
24/11:30pm 6.6 WNW 5 8 1001.9 - 5.4 - Partly cloudy 3 - - - -
24/11:29pm 6.5 W 5 8 1001.9 - 5.2 - Partly cloudy 3 - - - -
24/11:20pm 6.4 SSW 2 5 1001.8 - 4.6 - Partly cloudy 5 - - - -
24/11:10pm 6.3 SSW 3 4 1001.6 - 4.4 - Partly cloudy 9 - - - -
24/11:00pm 6.3 SSW 3 3 1001.6 - 4.4 - Partly cloudy 5 - - - -
24/10:50pm 6.4 SSW 4 5 1001.8 - 4.4 - Partly cloudy 5 - - - -
24/10:30pm 6.3 S 1 4 1001.7 - 4.4 - Partly cloudy 10 - - - -
24/10:00pm 6.5 S 4 5 1001.7 - 4.2 - Partly cloudy 10 - - - -
24/09:30pm 6.4 SSE 3 4 1002.2 - 4.2 - Partly cloudy 10 - - - -
24/09:00pm 6.3 S 7 9 1002.5 - 4.2 Recent precip. Mostly cloudy 10 - - - -
24/08:42pm 6.3 W 4 7 1002.7 - 4.2 - Partly cloudy 6 - - - -
24/08:30pm 6.3 NW 6 11 1002.9 - 4.0 - Partly cloudy 5 - - - -
24/08:24pm 6.2 WSW 6 11 1002.9 - 3.6 - Partly cloudy 5 - - - -
24/08:00pm 5.8 S 5 5 1002.6 - 2.6 - Partly cloudy 10 - - - -
24/07:30pm 6.3 S 5 6 1002.8 - 2.6 - Partly cloudy 10 - - - -
24/07:00pm 6.1 SE 3 4 1003.0 - 2.6 - Partly cloudy 10 - - - -
24/06:30pm 6.9 W 4 5 1003.0 - 2.6 - Partly cloudy 10 - - - -
24/06:00pm 7.1 SSW 5 6 1003.4 - 2.2 Recent precip. Cloudy 10 - - - -
24/05:30pm 7.2 SW 4 5 1003.3 - 2.2 - Partly cloudy 10 - - - -
24/05:00pm 7.4 SSE 4 5 1003.2 - 1.6 - Partly cloudy 10 - - - -
24/04:30pm 7.2 SE 4 5 1003.4 - 1.4 - Partly cloudy 10 - - - -
24/04:00pm 8.1 ESE 4 6 1003.5 - 1.4 - Partly cloudy 10 - - - -
24/03:47pm 8.1 ESE 4 6 1003.7 - 1.4 - Partly cloudy 8 - - - -
24/03:30pm 8.2 E 4 6 1003.7 - 1.2 - Partly cloudy 10 - - - -
24/03:21pm 8.3 ENE 3 6 1003.8 - 1.2 - Partly cloudy 10 - - - -
24/03:00pm 8.1 E 5 6 1003.7 - 1.2 - Mostly cloudy 10 - - - -
24/02:30pm 8.0 ESE 3 5 1004.1 - 1.2 - Partly cloudy 10 - - - -
24/02:00pm 8.0 E 3 5 1004.2 - 1.2 - Partly cloudy 10 - - - -
24/01:32pm 7.8 E 2 3 1004.7 - 1.2 - Partly cloudy 10 - - - -
24/01:30pm 7.8 E 2 3 1004.7 - 1.2 - Partly cloudy 10 - - - -
24/01:00pm 7.2 N 5 6 1005.2 - 0.6 - Partly cloudy 5 - - - -
24/12:30pm 8.1 NE 3 5 1005.2 - 0.0 - Partly cloudy 10 - - - -
24/12:00pm 8.1 NE 5 6 1005.7 - 0.0 - Cloudy 10 - - - -
24/11:30am 8.9 E 1 5 1006.2 - 0.0 - Partly cloudy 10 - - - -
24/11:00am 8.5 CALM 0 0 1006.7 - 0.0 - Partly cloudy 10 - - - -
24/10:30am 6.3 WSW 1 3 1006.8 - 0.0 - Partly cloudy 10 - - - -
24/10:00am 4.5 WSW 3 5 1006.9 - 0.0 - Partly cloudy 10 - - - -
24/09:30am 3.2 W 5 6 1007.1 - 0.0 - Partly cloudy 10 - - - -
24/09:00am 1.5 WNW 5 5 1007.2 - 3.8 Recent precip. Mostly clear 10 - - - -
24/08:30am 0.3 WSW 4 5 1007.2 - 3.4 - - 10 - - - -
24/08:00am -0.7 W 5 7 1007.2 - 3.4 - Partly cloudy 10 - - - -
24/07:30am -1.3 W 5 6 1007.2 - 3.4 - - 10 - - - -
24/07:00am -0.7 NW 3 6 1007.3 - 3.4 - Partly cloudy 10 - - - -
24/06:30am -0.6 SSW 6 6 1007.2 - 3.4 - - 10 - - - -
24/06:00am 0.1 SSW 4 5 1007.3 - 3.4 - Partly cloudy 10 - - - -
24/05:30am -0.1 SSW 5 6 1007.1 - 3.4 - - 10 - - - -
24/05:00am 0.6 SSW 5 6 1007.0 - 3.4 - Partly cloudy 10 - - - -
24/04:30am 0.4 SW 7 9 1007.5 - 3.4 - Partly cloudy 10 - - - -
24/04:00am -1.0 WNW 5 5 1007.2 - 3.4 - - 10 - - - -
24/03:30am -0.5 WNW 4 6 1007.4 - 3.4 - Partly cloudy 10 - - - -
24/03:00am -0.6 WSW 4 5 1007.6 - 3.4 - Mostly clear 10 - - - -
24/02:30am -0.6 WSW 3 4 1007.8 - 3.4 - - 10 - - - -
24/02:00am -0.6 WNW 7 8 1008.0 - 3.4 - - 10 - - - -
24/01:30am -0.6 W 5 6 1007.9 - 3.4 - - 10 - - - -
24/01:00am -1.0 W 5 6 1007.8 - 3.4 - - 10 - - - -
24/12:30am -0.6 WSW 4 5 1007.9 - 3.4 - - 10 - - - -
24/12:00am -0.7 SSW 5 6 1008.1 - 3.4 - - 10 - - - -
 
Date/Time
EST
Temp
°C
Wind Pressure Rain since
9am
mm
Weather Cloud Vis
km
Sea
Height
m
Swell
Dir  Spd
kts
Gust
kts
hPa Trend Height
m
Period
s
Dir
23/11:54pm -0.6 SSW 5 6 1008.0 - 3.4 - - 9 - - - -
23/11:30pm -0.5 SSW 5 6 1008.0 - 3.4 - - 5 - - - -
23/11:29pm -0.5 SSW 5 6 1008.0 - 3.4 - - 5 - - - -
23/11:00pm 0.7 SSW 5 7 1007.9 - 3.4 - - 10 - - - -
23/10:30pm 0.1 WNW 5 7 1007.5 - 3.4 - - 10 - - - -
23/10:00pm 0.5 WNW 6 7 1007.2 - 3.4 - - 10 - - - -
23/09:30pm 1.0 W 7 7 1007.0 - 3.4 - - 10 - - - -
23/09:00pm 2.2 W 8 10 1006.7 - 3.4 - - 10 - - - -
23/08:30pm 3.6 W 10 13 1006.2 - 3.4 - Partly cloudy 10 - - - -
23/08:13pm 4.1 WSW 16 27 1005.8 - 3.4 - Partly cloudy 10 - - - -
23/08:07pm 4.1 W 12 27 1005.9 - 3.4 - Partly cloudy 10 - - - -
23/08:00pm 2.5 W 6 9 1005.8 - 3.4 - Partly cloudy 10 - - - -
23/07:30pm 2.8 WNW 7 9 1004.9 - 3.4 - - 10 - - - -
23/07:00pm 3.6 W 8 15 1004.5 - 3.4 - Partly cloudy 10 - - - -
23/06:40pm 4.3 WSW 16 24 1004.0 - 3.4 - Partly cloudy 10 - - - -
23/06:30pm 4.6 WSW 19 30 1004.0 - 3.4 - Partly cloudy 5 - - - -
23/06:28pm 4.6 W 18 30 1003.9 - 3.4 - Partly cloudy 5 - - - -
23/06:23pm 4.7 SW 9 26 1003.7 - 3.2 - Partly cloudy 9 - - - -
23/06:00pm 4.5 W 11 16 1002.6 - 3.2 - - 10 - - - -
23/05:30pm 5.0 WSW 15 23 1001.8 - 3.2 - - 10 - - - -
23/05:00pm 5.0 WSW 13 20 1001.2 - 3.2 - Partly cloudy 10 - - - -
23/04:30pm 6.2 WSW 13 19 1000.2 - 2.8 - Partly cloudy 10 - - - -
23/04:00pm 6.4 WSW 14 23 998.8 - 2.8 - Partly cloudy 10 - - - -
23/03:30pm 6.7 WSW 18 27 997.5 - 2.8 - Partly cloudy 10 - - - -
23/03:00pm 6.4 W 20 31 995.9 - 2.8 Recent precip. Cloudy 10 - - - -
23/02:30pm 6.7 W 17 30 995.3 - 2.4 - Partly cloudy 8 - - - -
23/02:00pm 6.5 W 19 25 995.5 - 2.4 - Partly cloudy 10 - - - -
23/01:30pm 7.1 W 10 20 995.2 - 2.4 - Partly cloudy 10 - - - -
23/01:07pm 6.1 W 15 25 996.0 - 2.4 - Partly cloudy 10 - - - -
23/01:00pm 6.4 W 13 17 995.9 - 2.4 - Partly cloudy 10 - - - -
23/12:30pm 5.5 W 18 24 995.8 - 2.4 - Partly cloudy 10 - - - -
23/12:28pm 5.4 W 17 24 995.8 - 2.4 - Partly cloudy 10 - - - -
23/12:15pm 4.3 WSW 25 37 996.0 - 2.4 - Partly cloudy 3 - - - -
23/12:08pm 4.7 WSW 19 37 996.3 - 1.8 - Partly cloudy 5 - - - -
23/12:00pm 6.3 W 17 29 995.7 - 1.6 Recent precip. Cloudy 10 - - - -
23/11:53am 5.2 WNW 15 29 995.5 - 1.6 - Partly cloudy 9 - - - -
23/11:30am 5.9 W 12 17 995.6 - 1.4 - Partly cloudy 10 - - - -
23/11:00am 4.7 WSW 11 14 995.6 - 1.4 - Partly cloudy 8 - - - -
23/10:30am 3.7 W 17 23 995.4 - 1.4 - Partly cloudy 10 - - - -
23/10:25am 3.8 W 17 21 995.4 - 1.4 - Partly cloudy 10 - - - -
23/10:03am 3.4 W 22 33 995.1 - 1.0 - Partly cloudy 10 - - - -
23/10:00am 3.4 W 21 33 994.9 - 1.0 - Partly cloudy 10 - - - -
23/09:48am 2.9 W 23 33 994.9 - 1.0 - Partly cloudy 5 - - - -
23/09:44am 3.2 W 23 33 994.8 - 0.8 - Partly cloudy 5 - - - -
23/09:40am 3.6 W 21 32 994.8 - 0.6 - Partly cloudy 10 - - - -
23/09:30am 4.8 WSW 13 19 994.2 - 0.2 - Partly cloudy 10 - - - -
23/09:21am 4.2 WSW 12 20 993.8 - 0.2 - Partly cloudy 10 - - - -
23/09:08am 3.6 SW 13 22 993.7 - 0.2 - Partly cloudy 8 - - - -
23/09:00am 4.4 WSW 13 17 993.5 - 5.2 Recent precip. Cloudy 10 - - - -
23/08:34am 4.2 W 16 27 993.0 - 5.2 - Partly cloudy 10 - - - -
23/08:30am 4.1 W 15 20 992.9 - 5.2 - Partly cloudy 10 - - - -
23/08:07am 3.6 WSW 15 26 992.5 - 5.2 - Partly cloudy 8 - - - -
23/08:00am 4.0 WSW 13 20 992.8 - 5.0 - Partly cloudy 10 - - - -
23/07:30am 3.6 W 11 15 992.0 - 4.8 - Partly cloudy 10 - - - -
23/07:12am 4.1 W 16 27 991.8 - 4.8 - Partly cloudy 10 - - - -
23/07:00am 3.8 W 14 19 990.8 - 4.4 - - 10 - - - -
23/06:35am 3.6 SW 12 19 990.4 - 4.4 - Partly cloudy 10 - - - -
23/06:30am 3.8 WSW 16 29 990.3 - 4.4 - Partly cloudy 10 - - - -
23/06:18am 4.6 W 19 31 990.7 - 4.4 - Partly cloudy 5 - - - -
23/06:12am 5.0 W 15 28 990.2 - 4.2 - Partly cloudy 10 - - - -
23/06:00am 4.7 W 13 19 989.6 - 4.2 Recent precip. Mostly cloudy 10 - - - -
23/05:30am 4.7 WSW 14 21 988.9 - 4.0 - Partly cloudy 10 - - - -
23/05:00am 5.1 WSW 15 22 988.5 - 4.0 - Partly cloudy 10 - - - -
23/04:30am 5.3 W 16 24 987.9 - 4.0 - Partly cloudy 10 - - - -
23/04:00am 5.7 W 13 18 988.1 - 3.6 - Partly cloudy 6 - - - -

Other Formats:

Comma delimited format used in spreadsheet applications
http://www.bom.gov.au/fwo/IDT60701/IDT60701.95957.axf

JavaScript Object Notation format (JSON) in row-major order
http://www.bom.gov.au/fwo/IDT60701/IDT60701.95957.json